Terminal Aerodrome Forecast
Issued by NWS

Home | Current Version | Previous Version | Text Only | Print | Product List | Glossary On
Versions: 1 2 3 4 5 6 7 8 9 10 11 12 13 14 15 16
380
FTUS45 KRIW 181724
TAFBPI
TAF
KBPI 181724Z 1818/1918 25010G18KT 3SM -SN OVC020
     FM190000 31010KT 5SM -SN OVC026
     FM190900 35008KT P6SM VCSH BKN035=

USA.gov is the U.S. government's official web portal to all federal, state and local government web resources and services.